sensor_id;sensor_type;location;lat;lon;timestamp;P1;durP1;ratioP1;P2;durP2;ratioP2
7166;SDS011;3625;51.762;14.320;2022-07-18T00:00:07;4.45;;;2.15;;
7166;SDS011;3625;51.762;14.320;2022-07-18T00:02:37;2.20;;;1.95;;
7166;SDS011;3625;51.762;14.320;2022-07-18T00:05:07;2.70;;;1.95;;
7166;SDS011;3625;51.762;14.320;2022-07-18T00:07:36;3.83;;;1.98;;
7166;SDS011;3625;51.762;14.320;2022-07-18T00:10:08;3.13;;;2.00;;
7166;SDS011;3625;51.762;14.320;2022-07-18T00:12:37;2.83;;;1.85;;
7166;SDS011;3625;51.762;14.320;2022-07-18T00:15:08;3.85;;;2.05;;
7166;SDS011;3625;51.762;14.320;2022-07-18T00:17:38;4.50;;;2.23;;
7166;SDS011;3625;51.762;14.320;2022-07-18T00:20:07;3.45;;;1.90;;
7166;SDS011;3625;51.762;14.320;2022-07-18T00:22:39;3.20;;;2.17;;
7166;SDS011;3625;51.762;14.320;2022-07-18T00:25:08;3.47;;;2.10;;
7166;SDS011;3625;51.762;14.320;2022-07-18T00:27:38;3.13;;;2.30;;
7166;SDS011;3625;51.762;14.320;2022-07-18T00:30:10;2.80;;;2.00;;
7166;SDS011;3625;51.762;14.320;2022-07-18T00:32:39;3.75;;;2.30;;
7166;SDS011;3625;51.762;14.320;2022-07-18T00:35:08;3.00;;;2.05;;
7166;SDS011;3625;51.762;14.320;2022-07-18T00:37:37;5.13;;;2.20;;
7166;SDS011;3625;51.762;14.320;2022-07-18T00:40:07;5.95;;;2.20;;
7166;SDS011;3625;51.762;14.320;2022-07-18T00:42:37;3.47;;;2.17;;
7166;SDS011;3625;51.762;14.320;2022-07-18T00:45:10;2.72;;;2.13;;
7166;SDS011;3625;51.762;14.320;2022-07-18T00:47:39;4.17;;;2.27;;
7166;SDS011;3625;51.762;14.320;2022-07-18T00:50:09;3.53;;;1.83;;
7166;SDS011;3625;51.762;14.320;2022-07-18T00:52:38;6.13;;;2.75;;
7166;SDS011;3625;51.762;14.320;2022-07-18T00:55:07;3.43;;;2.40;;
7166;SDS011;3625;51.762;14.320;2022-07-18T00:57:37;5.00;;;2.57;;
7166;SDS011;3625;51.762;14.320;2022-07-18T01:00:13;3.63;;;2.03;;
7166;SDS011;3625;51.762;14.320;2022-07-18T01:03:00;4.13;;;2.40;;
7166;SDS011;3625;51.762;14.320;2022-07-18T01:05:32;2.33;;;2.10;;
7166;SDS011;3625;51.762;14.320;2022-07-18T01:08:01;4.05;;;2.35;;
7166;SDS011;3625;51.762;14.320;2022-07-18T01:10:31;4.90;;;2.57;;
7166;SDS011;3625;51.762;14.320;2022-07-18T01:13:00;3.50;;;2.30;;
7166;SDS011;3625;51.762;14.320;2022-07-18T01:15:30;3.10;;;2.13;;
7166;SDS011;3625;51.762;14.320;2022-07-18T01:17:59;4.97;;;2.20;;
7166;SDS011;3625;51.762;14.320;2022-07-18T01:20:30;3.70;;;2.63;;
7166;SDS011;3625;51.762;14.320;2022-07-18T01:22:59;4.50;;;2.50;;
7166;SDS011;3625;51.762;14.320;2022-07-18T01:25:29;6.90;;;3.20;;
7166;SDS011;3625;51.762;14.320;2022-07-18T01:27:58;5.30;;;2.63;;
7166;SDS011;3625;51.762;14.320;2022-07-18T01:30:27;7.53;;;2.70;;
7166;SDS011;3625;51.762;14.320;2022-07-18T01:32:59;7.50;;;3.10;;
7166;SDS011;3625;51.762;14.320;2022-07-18T01:35:31;8.63;;;3.10;;
7166;SDS011;3625;51.762;14.320;2022-07-18T01:38:01;5.30;;;2.80;;
7166;SDS011;3625;51.762;14.320;2022-07-18T01:40:31;4.10;;;2.53;;
7166;SDS011;3625;51.762;14.320;2022-07-18T01:43:00;6.20;;;2.97;;
7166;SDS011;3625;51.762;14.320;2022-07-18T01:45:29;5.33;;;2.80;;
7166;SDS011;3625;51.762;14.320;2022-07-18T01:47:59;4.60;;;2.80;;
7166;SDS011;3625;51.762;14.320;2022-07-18T01:50:28;5.87;;;3.07;;
7166;SDS011;3625;51.762;14.320;2022-07-18T01:52:58;5.43;;;2.53;;
7166;SDS011;3625;51.762;14.320;2022-07-18T01:55:27;5.47;;;2.50;;
7166;SDS011;3625;51.762;14.320;2022-07-18T01:57:57;5.23;;;2.63;;
7166;SDS011;3625;51.762;14.320;2022-07-18T02:00:28;5.37;;;3.17;;
7166;SDS011;3625;51.762;14.320;2022-07-18T02:02:58;4.33;;;2.53;;
7166;SDS011;3625;51.762;14.320;2022-07-18T02:05:26;5.80;;;2.80;;
7166;SDS011;3625;51.762;14.320;2022-07-18T02:08:01;5.13;;;2.90;;
7166;SDS011;3625;51.762;14.320;2022-07-18T02:10:31;3.10;;;2.47;;
7166;SDS011;3625;51.762;14.320;2022-07-18T02:13:01;6.23;;;2.43;;
7166;SDS011;3625;51.762;14.320;2022-07-18T02:15:32;2.50;;;2.30;;
7166;SDS011;3625;51.762;14.320;2022-07-18T02:18:01;3.57;;;2.30;;
7166;SDS011;3625;51.762;14.320;2022-07-18T02:20:30;3.87;;;2.47;;
7166;SDS011;3625;51.762;14.320;2022-07-18T02:22:59;4.80;;;2.80;;
7166;SDS011;3625;51.762;14.320;2022-07-18T02:25:29;5.27;;;2.37;;
7166;SDS011;3625;51.762;14.320;2022-07-18T02:27:58;4.38;;;2.65;;
7166;SDS011;3625;51.762;14.320;2022-07-18T02:30:27;3.58;;;2.42;;
7166;SDS011;3625;51.762;14.320;2022-07-18T02:32:56;2.83;;;2.47;;
7166;SDS011;3625;51.762;14.320;2022-07-18T02:35:26;3.43;;;2.20;;
7166;SDS011;3625;51.762;14.320;2022-07-18T02:37:55;3.83;;;2.50;;
7166;SDS011;3625;51.762;14.320;2022-07-18T02:40:25;4.73;;;2.30;;
7166;SDS011;3625;51.762;14.320;2022-07-18T02:42:54;2.92;;;2.25;;
7166;SDS011;3625;51.762;14.320;2022-07-18T02:45:23;5.25;;;2.83;;
7166;SDS011;3625;51.762;14.320;2022-07-18T02:47:55;3.20;;;2.67;;
7166;SDS011;3625;51.762;14.320;2022-07-18T02:50:24;5.00;;;2.10;;
7166;SDS011;3625;51.762;14.320;2022-07-18T02:52:53;4.17;;;2.63;;
7166;SDS011;3625;51.762;14.320;2022-07-18T02:55:24;3.93;;;2.57;;
7166;SDS011;3625;51.762;14.320;2022-07-18T02:57:53;2.63;;;2.13;;
7166;SDS011;3625;51.762;14.320;2022-07-18T03:00:22;4.80;;;2.20;;
7166;SDS011;3625;51.762;14.320;2022-07-18T03:02:51;5.10;;;2.50;;
7166;SDS011;3625;51.762;14.320;2022-07-18T03:05:19;5.80;;;2.50;;
7166;SDS011;3625;51.762;14.320;2022-07-18T03:07:50;5.67;;;2.50;;
7166;SDS011;3625;51.762;14.320;2022-07-18T03:10:19;3.93;;;2.50;;
7166;SDS011;3625;51.762;14.320;2022-07-18T03:12:51;3.23;;;2.40;;
7166;SDS011;3625;51.762;14.320;2022-07-18T03:15:22;4.73;;;2.40;;
7166;SDS011;3625;51.762;14.320;2022-07-18T03:17:50;3.40;;;2.30;;
7166;SDS011;3625;51.762;14.320;2022-07-18T03:20:19;4.97;;;2.70;;
7166;SDS011;3625;51.762;14.320;2022-07-18T03:22:48;2.93;;;2.50;;
7166;SDS011;3625;51.762;14.320;2022-07-18T03:25:17;3.53;;;2.50;;
7166;SDS011;3625;51.762;14.320;2022-07-18T03:27:45;3.23;;;2.40;;
7166;SDS011;3625;51.762;14.320;2022-07-18T03:30:16;3.10;;;2.60;;
7166;SDS011;3625;51.762;14.320;2022-07-18T03:32:45;4.27;;;2.67;;
7166;SDS011;3625;51.762;14.320;2022-07-18T03:35:14;4.93;;;2.60;;
7166;SDS011;3625;51.762;14.320;2022-07-18T03:37:43;3.10;;;2.57;;
7166;SDS011;3625;51.762;14.320;2022-07-18T03:40:12;5.47;;;2.60;;
7166;SDS011;3625;51.762;14.320;2022-07-18T03:42:41;4.00;;;2.40;;
7166;SDS011;3625;51.762;14.320;2022-07-18T03:45:10;3.40;;;2.60;;
7166;SDS011;3625;51.762;14.320;2022-07-18T03:47:40;3.47;;;2.70;;
7166;SDS011;3625;51.762;14.320;2022-07-18T03:50:12;3.33;;;2.80;;
7166;SDS011;3625;51.762;14.320;2022-07-18T03:52:40;6.07;;;2.60;;
7166;SDS011;3625;51.762;14.320;2022-07-18T03:55:09;4.77;;;2.40;;
7166;SDS011;3625;51.762;14.320;2022-07-18T03:57:38;3.70;;;2.60;;
7166;SDS011;3625;51.762;14.320;2022-07-18T04:00:09;4.20;;;2.40;;
7166;SDS011;3625;51.762;14.320;2022-07-18T04:02:41;4.67;;;2.60;;
7166;SDS011;3625;51.762;14.320;2022-07-18T04:05:14;6.50;;;3.80;;
7166;SDS011;3625;51.762;14.320;2022-07-18T04:07:45;11.43;;;6.33;;
7166;SDS011;3625;51.762;14.320;2022-07-18T04:10:16;9.47;;;6.07;;
7166;SDS011;3625;51.762;14.320;2022-07-18T04:12:45;6.53;;;4.13;;
7166;SDS011;3625;51.762;14.320;2022-07-18T04:15:15;4.77;;;3.57;;
7166;SDS011;3625;51.762;14.320;2022-07-18T04:17:48;8.27;;;3.60;;
7166;SDS011;3625;51.762;14.320;2022-07-18T04:20:31;3.23;;;2.70;;
7166;SDS011;3625;51.762;14.320;2022-07-18T04:23:18;4.97;;;2.90;;
7166;SDS011;3625;51.762;14.320;2022-07-18T04:25:47;4.10;;;2.87;;
7166;SDS011;3625;51.762;14.320;2022-07-18T04:28:16;4.47;;;2.93;;
7166;SDS011;3625;51.762;14.320;2022-07-18T04:30:47;4.37;;;3.27;;
7166;SDS011;3625;51.762;14.320;2022-07-18T04:33:18;4.90;;;2.57;;
7166;SDS011;3625;51.762;14.320;2022-07-18T04:35:47;4.27;;;2.63;;
7166;SDS011;3625;51.762;14.320;2022-07-18T04:38:16;5.47;;;2.90;;
7166;SDS011;3625;51.762;14.320;2022-07-18T04:40:45;3.73;;;2.70;;
7166;SDS011;3625;51.762;14.320;2022-07-18T04:43:14;3.93;;;2.90;;
7166;SDS011;3625;51.762;14.320;2022-07-18T04:45:42;4.50;;;2.80;;
7166;SDS011;3625;51.762;14.320;2022-07-18T04:48:11;5.40;;;2.72;;
7166;SDS011;3625;51.762;14.320;2022-07-18T04:50:41;5.15;;;2.83;;
7166;SDS011;3625;51.762;14.320;2022-07-18T04:53:11;3.93;;;2.90;;
7166;SDS011;3625;51.762;14.320;2022-07-18T04:55:39;6.20;;;2.90;;
7166;SDS011;3625;51.762;14.320;2022-07-18T04:58:08;8.57;;;3.27;;
7166;SDS011;3625;51.762;14.320;2022-07-18T05:00:37;9.33;;;3.27;;
7166;SDS011;3625;51.762;14.320;2022-07-18T05:03:06;4.80;;;2.80;;
7166;SDS011;3625;51.762;14.320;2022-07-18T05:05:35;4.63;;;2.93;;
7166;SDS011;3625;51.762;14.320;2022-07-18T05:08:06;5.82;;;3.63;;
7166;SDS011;3625;51.762;14.320;2022-07-18T05:10:38;7.10;;;3.10;;
7166;SDS011;3625;51.762;14.320;2022-07-18T05:13:08;3.72;;;2.30;;
7166;SDS011;3625;51.762;14.320;2022-07-18T05:15:37;4.00;;;2.20;;
7166;SDS011;3625;51.762;14.320;2022-07-18T05:18:06;3.15;;;2.20;;
7166;SDS011;3625;51.762;14.320;2022-07-18T05:20:35;4.18;;;2.17;;
7166;SDS011;3625;51.762;14.320;2022-07-18T05:23:10;7.50;;;2.38;;
7166;SDS011;3625;51.762;14.320;2022-07-18T05:25:43;3.67;;;1.88;;
7166;SDS011;3625;51.762;14.320;2022-07-18T05:28:12;2.92;;;2.05;;
7166;SDS011;3625;51.762;14.320;2022-07-18T05:30:40;6.25;;;2.10;;
7166;SDS011;3625;51.762;14.320;2022-07-18T05:33:09;3.28;;;2.03;;
7166;SDS011;3625;51.762;14.320;2022-07-18T05:35:44;2.25;;;1.90;;
7166;SDS011;3625;51.762;14.320;2022-07-18T05:38:14;3.65;;;1.92;;
7166;SDS011;3625;51.762;14.320;2022-07-18T05:40:43;3.35;;;1.92;;
7166;SDS011;3625;51.762;14.320;2022-07-18T05:43:12;3.67;;;1.92;;
7166;SDS011;3625;51.762;14.320;2022-07-18T05:45:41;3.85;;;2.17;;
7166;SDS011;3625;51.762;14.320;2022-07-18T05:48:09;2.45;;;1.80;;
7166;SDS011;3625;51.762;14.320;2022-07-18T05:50:38;2.67;;;1.83;;
7166;SDS011;3625;51.762;14.320;2022-07-18T05:53:07;3.00;;;1.90;;
7166;SDS011;3625;51.762;14.320;2022-07-18T05:55:38;3.13;;;1.95;;
7166;SDS011;3625;51.762;14.320;2022-07-18T05:58:07;3.65;;;2.08;;
7166;SDS011;3625;51.762;14.320;2022-07-18T06:00:35;4.20;;;1.95;;
7166;SDS011;3625;51.762;14.320;2022-07-18T06:03:06;2.83;;;2.00;;
7166;SDS011;3625;51.762;14.320;2022-07-18T06:05:35;3.17;;;1.88;;
7166;SDS011;3625;51.762;14.320;2022-07-18T06:08:05;2.63;;;1.70;;
7166;SDS011;3625;51.762;14.320;2022-07-18T06:10:34;3.92;;;2.05;;
7166;SDS011;3625;51.762;14.320;2022-07-18T06:13:11;2.00;;;1.75;;
7166;SDS011;3625;51.762;14.320;2022-07-18T06:15:40;2.95;;;1.90;;
7166;SDS011;3625;51.762;14.320;2022-07-18T06:18:08;3.83;;;2.05;;
7166;SDS011;3625;51.762;14.320;2022-07-18T06:20:37;2.60;;;1.75;;
7166;SDS011;3625;51.762;14.320;2022-07-18T06:23:06;8.63;;;2.30;;
7166;SDS011;3625;51.762;14.320;2022-07-18T06:25:35;2.58;;;1.67;;
7166;SDS011;3625;51.762;14.320;2022-07-18T06:28:06;2.45;;;1.90;;
7166;SDS011;3625;51.762;14.320;2022-07-18T06:30:36;3.03;;;1.80;;
7166;SDS011;3625;51.762;14.320;2022-07-18T06:33:07;9.50;;;1.90;;
7166;SDS011;3625;51.762;14.320;2022-07-18T06:35:37;3.60;;;1.90;;
7166;SDS011;3625;51.762;14.320;2022-07-18T06:38:05;3.70;;;2.33;;
7166;SDS011;3625;51.762;14.320;2022-07-18T06:40:36;3.35;;;2.00;;
7166;SDS011;3625;51.762;14.320;2022-07-18T06:43:05;3.63;;;1.95;;
7166;SDS011;3625;51.762;14.320;2022-07-18T06:45:36;4.85;;;1.90;;
7166;SDS011;3625;51.762;14.320;2022-07-18T06:48:05;5.75;;;2.10;;
7166;SDS011;3625;51.762;14.320;2022-07-18T06:50:34;1.92;;;1.70;;
7166;SDS011;3625;51.762;14.320;2022-07-18T06:53:03;3.28;;;1.98;;
7166;SDS011;3625;51.762;14.320;2022-07-18T06:55:32;2.13;;;1.70;;
7166;SDS011;3625;51.762;14.320;2022-07-18T06:58:01;3.30;;;2.05;;
7166;SDS011;3625;51.762;14.320;2022-07-18T07:00:30;4.72;;;1.90;;
7166;SDS011;3625;51.762;14.320;2022-07-18T07:03:02;3.85;;;1.88;;
7166;SDS011;3625;51.762;14.320;2022-07-18T07:05:33;4.55;;;1.70;;
7166;SDS011;3625;51.762;14.320;2022-07-18T07:08:02;2.70;;;2.08;;
7166;SDS011;3625;51.762;14.320;2022-07-18T07:10:35;4.03;;;1.60;;
7166;SDS011;3625;51.762;14.320;2022-07-18T07:13:05;4.25;;;1.70;;
7166;SDS011;3625;51.762;14.320;2022-07-18T07:15:37;2.30;;;1.60;;
7166;SDS011;3625;51.762;14.320;2022-07-18T07:18:11;6.95;;;2.15;;
7166;SDS011;3625;51.762;14.320;2022-07-18T07:20:42;3.13;;;1.75;;
7166;SDS011;3625;51.762;14.320;2022-07-18T07:23:12;4.65;;;1.95;;
7166;SDS011;3625;51.762;14.320;2022-07-18T07:25:43;2.45;;;1.60;;
7166;SDS011;3625;51.762;14.320;2022-07-18T07:28:12;2.90;;;1.67;;
7166;SDS011;3625;51.762;14.320;2022-07-18T07:30:44;3.33;;;1.92;;
7166;SDS011;3625;51.762;14.320;2022-07-18T07:33:20;3.00;;;1.70;;
7166;SDS011;3625;51.762;14.320;2022-07-18T07:35:51;6.35;;;2.17;;
7166;SDS011;3625;51.762;14.320;2022-07-18T07:38:20;4.63;;;1.90;;
7166;SDS011;3625;51.762;14.320;2022-07-18T07:40:54;4.88;;;2.10;;
7166;SDS011;3625;51.762;14.320;2022-07-18T07:43:23;2.67;;;1.95;;
7166;SDS011;3625;51.762;14.320;2022-07-18T07:45:52;4.15;;;1.80;;
7166;SDS011;3625;51.762;14.320;2022-07-18T07:48:24;5.13;;;1.70;;
7166;SDS011;3625;51.762;14.320;2022-07-18T07:50:53;1.77;;;1.67;;
7166;SDS011;3625;51.762;14.320;2022-07-18T07:57:30;3.22;;;1.90;;
7166;SDS011;3625;51.762;14.320;2022-07-18T08:00:06;3.60;;;1.60;;
7166;SDS011;3625;51.762;14.320;2022-07-18T08:02:49;4.25;;;1.80;;
7166;SDS011;3625;51.762;14.320;2022-07-18T08:05:30;3.75;;;1.50;;
7166;SDS011;3625;51.762;14.320;2022-07-18T08:08:05;2.58;;;1.38;;
7166;SDS011;3625;51.762;14.320;2022-07-18T08:10:35;2.80;;;1.70;;
7166;SDS011;3625;51.762;14.320;2022-07-18T08:13:09;3.45;;;1.63;;
7166;SDS011;3625;51.762;14.320;2022-07-18T08:15:41;2.35;;;1.50;;
7166;SDS011;3625;51.762;14.320;2022-07-18T08:18:10;3.40;;;1.70;;
7166;SDS011;3625;51.762;14.320;2022-07-18T08:20:44;3.65;;;1.80;;
7166;SDS011;3625;51.762;14.320;2022-07-18T08:23:13;4.00;;;1.70;;
7166;SDS011;3625;51.762;14.320;2022-07-18T08:25:46;4.03;;;1.52;;
7166;SDS011;3625;51.762;14.320;2022-07-18T08:28:24;2.50;;;1.65;;
7166;SDS011;3625;51.762;14.320;2022-07-18T08:30:53;2.70;;;1.35;;
7166;SDS011;3625;51.762;14.320;2022-07-18T08:33:25;2.75;;;1.67;;
7166;SDS011;3625;51.762;14.320;2022-07-18T08:35:55;4.65;;;1.55;;
7166;SDS011;3625;51.762;14.320;2022-07-18T08:38:24;1.65;;;1.33;;
7166;SDS011;3625;51.762;14.320;2022-07-18T08:40:52;3.63;;;1.55;;
7166;SDS011;3625;51.762;14.320;2022-07-18T08:43:23;2.63;;;1.30;;
7166;SDS011;3625;51.762;14.320;2022-07-18T08:46:02;3.60;;;1.38;;
7166;SDS011;3625;51.762;14.320;2022-07-18T08:48:33;3.22;;;1.85;;
7166;SDS011;3625;51.762;14.320;2022-07-18T08:51:03;1.80;;;1.35;;
7166;SDS011;3625;51.762;14.320;2022-07-18T08:53:34;2.83;;;1.30;;
7166;SDS011;3625;51.762;14.320;2022-07-18T08:56:06;3.60;;;1.45;;
7166;SDS011;3625;51.762;14.320;2022-07-18T08:58:35;2.40;;;1.58;;
7166;SDS011;3625;51.762;14.320;2022-07-18T09:01:12;2.67;;;1.40;;
7166;SDS011;3625;51.762;14.320;2022-07-18T09:03:41;4.35;;;1.60;;
7166;SDS011;3625;51.762;14.320;2022-07-18T09:06:12;3.55;;;1.67;;
7166;SDS011;3625;51.762;14.320;2022-07-18T09:08:57;2.35;;;1.50;;
7166;SDS011;3625;51.762;14.320;2022-07-18T09:11:28;3.10;;;1.50;;
7166;SDS011;3625;51.762;14.320;2022-07-18T09:14:34;2.75;;;1.40;;
7166;SDS011;3625;51.762;14.320;2022-07-18T09:17:10;3.03;;;1.70;;
7166;SDS011;3625;51.762;14.320;2022-07-18T09:19:43;2.47;;;1.40;;
7166;SDS011;3625;51.762;14.320;2022-07-18T09:22:26;1.70;;;1.30;;
7166;SDS011;3625;51.762;14.320;2022-07-18T09:24:59;4.40;;;1.73;;
7166;SDS011;3625;51.762;14.320;2022-07-18T09:27:36;3.30;;;1.80;;
7166;SDS011;3625;51.762;14.320;2022-07-18T09:30:22;3.83;;;1.40;;
7166;SDS011;3625;51.762;14.320;2022-07-18T09:33:03;2.35;;;1.35;;
7166;SDS011;3625;51.762;14.320;2022-07-18T09:35:35;1.55;;;1.40;;
7166;SDS011;3625;51.762;14.320;2022-07-18T09:38:12;2.92;;;1.48;;
7166;SDS011;3625;51.762;14.320;2022-07-18T09:40:44;2.03;;;1.65;;
7166;SDS011;3625;51.762;14.320;2022-07-18T09:43:15;4.88;;;1.77;;
7166;SDS011;3625;51.762;14.320;2022-07-18T09:45:47;3.47;;;1.52;;
7166;SDS011;3625;51.762;14.320;2022-07-18T09:48:19;2.95;;;2.00;;
7166;SDS011;3625;51.762;14.320;2022-07-18T09:50:52;2.67;;;1.70;;
7166;SDS011;3625;51.762;14.320;2022-07-18T09:53:26;2.38;;;1.60;;
7166;SDS011;3625;51.762;14.320;2022-07-18T09:56:01;2.90;;;1.70;;
7166;SDS011;3625;51.762;14.320;2022-07-18T09:58:34;3.75;;;1.75;;
7166;SDS011;3625;51.762;14.320;2022-07-18T10:01:05;2.75;;;1.65;;
7166;SDS011;3625;51.762;14.320;2022-07-18T10:03:36;2.95;;;1.85;;
7166;SDS011;3625;51.762;14.320;2022-07-18T10:06:06;3.47;;;2.17;;
7166;SDS011;3625;51.762;14.320;2022-07-18T10:08:39;4.30;;;1.95;;
7166;SDS011;3625;51.762;14.320;2022-07-18T10:11:09;2.78;;;1.73;;
7166;SDS011;3625;51.762;14.320;2022-07-18T10:13:40;3.25;;;1.90;;
7166;SDS011;3625;51.762;14.320;2022-07-18T10:16:09;3.25;;;1.95;;
7166;SDS011;3625;51.762;14.320;2022-07-18T10:18:39;3.97;;;1.90;;
7166;SDS011;3625;51.762;14.320;2022-07-18T10:21:08;3.17;;;1.63;;
7166;SDS011;3625;51.762;14.320;2022-07-18T10:23:41;5.68;;;2.22;;
7166;SDS011;3625;51.762;14.320;2022-07-18T10:26:18;3.03;;;2.15;;
7166;SDS011;3625;51.762;14.320;2022-07-18T10:32:00;2.65;;;1.75;;
7166;SDS011;3625;51.762;14.320;2022-07-18T10:34:38;4.13;;;1.73;;
7166;SDS011;3625;51.762;14.320;2022-07-18T10:37:08;2.15;;;1.60;;
7166;SDS011;3625;51.762;14.320;2022-07-18T10:39:41;2.53;;;1.90;;
7166;SDS011;3625;51.762;14.320;2022-07-18T10:42:15;1.80;;;1.70;;
7166;SDS011;3625;51.762;14.320;2022-07-18T10:44:47;2.78;;;2.00;;
7166;SDS011;3625;51.762;14.320;2022-07-18T10:47:16;3.33;;;2.20;;
7166;SDS011;3625;51.762;14.320;2022-07-18T10:50:03;4.05;;;2.25;;
7166;SDS011;3625;51.762;14.320;2022-07-18T10:58:19;3.45;;;2.13;;
7166;SDS011;3625;51.762;14.320;2022-07-18T11:00:59;3.70;;;2.22;;
7166;SDS011;3625;51.762;14.320;2022-07-18T11:03:36;5.57;;;2.45;;
7166;SDS011;3625;51.762;14.320;2022-07-18T11:06:05;5.97;;;2.05;;
7166;SDS011;3625;51.762;14.320;2022-07-18T11:08:34;2.90;;;1.90;;
7166;SDS011;3625;51.762;14.320;2022-07-18T11:13:53;5.55;;;2.00;;
7166;SDS011;3625;51.762;14.320;2022-07-18T11:16:25;1.88;;;1.70;;
7166;SDS011;3625;51.762;14.320;2022-07-18T11:21:55;3.13;;;1.70;;
7166;SDS011;3625;51.762;14.320;2022-07-18T11:24:26;4.45;;;2.15;;
7166;SDS011;3625;51.762;14.320;2022-07-18T11:27:03;3.10;;;1.95;;
7166;SDS011;3625;51.762;14.320;2022-07-18T11:29:39;3.28;;;1.90;;
7166;SDS011;3625;51.762;14.320;2022-07-18T11:32:19;1.95;;;1.75;;
7166;SDS011;3625;51.762;14.320;2022-07-18T11:34:51;2.28;;;1.88;;
7166;SDS011;3625;51.762;14.320;2022-07-18T11:37:20;3.95;;;1.95;;
7166;SDS011;3625;51.762;14.320;2022-07-18T11:40:05;4.05;;;2.40;;
7166;SDS011;3625;51.762;14.320;2022-07-18T11:42:40;4.93;;;2.13;;
7166;SDS011;3625;51.762;14.320;2022-07-18T11:45:10;4.18;;;1.83;;
7166;SDS011;3625;51.762;14.320;2022-07-18T11:47:48;4.35;;;2.25;;
7166;SDS011;3625;51.762;14.320;2022-07-18T11:50:26;3.72;;;2.08;;
7166;SDS011;3625;51.762;14.320;2022-07-18T11:53:11;2.33;;;1.80;;
7166;SDS011;3625;51.762;14.320;2022-07-18T11:55:45;2.40;;;1.80;;
7166;SDS011;3625;51.762;14.320;2022-07-18T11:58:21;2.40;;;2.03;;
7166;SDS011;3625;51.762;14.320;2022-07-18T12:00:50;6.07;;;2.40;;
7166;SDS011;3625;51.762;14.320;2022-07-18T12:03:33;4.45;;;2.10;;
7166;SDS011;3625;51.762;14.320;2022-07-18T12:06:10;3.53;;;1.88;;
7166;SDS011;3625;51.762;14.320;2022-07-18T12:08:46;3.10;;;1.90;;
7166;SDS011;3625;51.762;14.320;2022-07-18T12:11:17;2.35;;;1.77;;
7166;SDS011;3625;51.762;14.320;2022-07-18T12:13:56;2.55;;;2.00;;
7166;SDS011;3625;51.762;14.320;2022-07-18T12:16:34;3.88;;;1.85;;
7166;SDS011;3625;51.762;14.320;2022-07-18T12:19:07;2.40;;;1.98;;
7166;SDS011;3625;51.762;14.320;2022-07-18T12:21:48;4.22;;;2.00;;
7166;SDS011;3625;51.762;14.320;2022-07-18T12:25:06;2.00;;;1.52;;
7166;SDS011;3625;51.762;14.320;2022-07-18T12:27:35;3.28;;;1.77;;
7166;SDS011;3625;51.762;14.320;2022-07-18T12:30:11;3.97;;;1.77;;
7166;SDS011;3625;51.762;14.320;2022-07-18T12:32:46;1.88;;;1.60;;
7166;SDS011;3625;51.762;14.320;2022-07-18T12:35:19;4.53;;;1.90;;
7166;SDS011;3625;51.762;14.320;2022-07-18T12:37:54;3.20;;;2.00;;
7166;SDS011;3625;51.762;14.320;2022-07-18T12:40:27;3.45;;;2.00;;
7166;SDS011;3625;51.762;14.320;2022-07-18T12:43:14;2.72;;;2.00;;
7166;SDS011;3625;51.762;14.320;2022-07-18T12:46:00;3.45;;;2.05;;
7166;SDS011;3625;51.762;14.320;2022-07-18T12:48:34;5.30;;;2.08;;
7166;SDS011;3625;51.762;14.320;2022-07-18T12:51:12;2.33;;;1.88;;
7166;SDS011;3625;51.762;14.320;2022-07-18T12:54:04;4.20;;;2.28;;
7166;SDS011;3625;51.762;14.320;2022-07-18T12:56:36;7.53;;;2.53;;
7166;SDS011;3625;51.762;14.320;2022-07-18T12:59:06;5.07;;;2.08;;
7166;SDS011;3625;51.762;14.320;2022-07-18T13:01:36;2.15;;;1.90;;
7166;SDS011;3625;51.762;14.320;2022-07-18T13:04:09;2.60;;;2.00;;
7166;SDS011;3625;51.762;14.320;2022-07-18T13:06:39;2.72;;;2.10;;
7166;SDS011;3625;51.762;14.320;2022-07-18T13:09:14;2.35;;;1.90;;
7166;SDS011;3625;51.762;14.320;2022-07-18T13:11:46;2.63;;;2.08;;
7166;SDS011;3625;51.762;14.320;2022-07-18T13:14:18;2.40;;;2.00;;
7166;SDS011;3625;51.762;14.320;2022-07-18T13:16:48;2.38;;;1.92;;
7166;SDS011;3625;51.762;14.320;2022-07-18T13:19:23;3.50;;;2.20;;
7166;SDS011;3625;51.762;14.320;2022-07-18T13:21:53;3.30;;;2.00;;
7166;SDS011;3625;51.762;14.320;2022-07-18T13:24:24;3.30;;;2.00;;
7166;SDS011;3625;51.762;14.320;2022-07-18T13:27:01;3.33;;;2.10;;
7166;SDS011;3625;51.762;14.320;2022-07-18T13:29:35;3.33;;;2.72;;
7166;SDS011;3625;51.762;14.320;2022-07-18T13:32:05;2.33;;;2.13;;
7166;SDS011;3625;51.762;14.320;2022-07-18T13:34:36;2.63;;;2.42;;
7166;SDS011;3625;51.762;14.320;2022-07-18T13:37:06;3.58;;;2.50;;
7166;SDS011;3625;51.762;14.320;2022-07-18T13:39:35;3.85;;;2.40;;
7166;SDS011;3625;51.762;14.320;2022-07-18T13:42:06;3.30;;;2.25;;
7166;SDS011;3625;51.762;14.320;2022-07-18T13:44:35;3.53;;;2.17;;
7166;SDS011;3625;51.762;14.320;2022-07-18T13:47:08;3.20;;;2.28;;
7166;SDS011;3625;51.762;14.320;2022-07-18T13:49:38;5.75;;;2.50;;
7166;SDS011;3625;51.762;14.320;2022-07-18T13:52:08;3.08;;;2.03;;
7166;SDS011;3625;51.762;14.320;2022-07-18T13:54:40;2.53;;;2.08;;
7166;SDS011;3625;51.762;14.320;2022-07-18T13:57:13;2.63;;;2.00;;
7166;SDS011;3625;51.762;14.320;2022-07-18T13:59:48;5.03;;;2.58;;
7166;SDS011;3625;51.762;14.320;2022-07-18T14:02:20;2.83;;;2.00;;
7166;SDS011;3625;51.762;14.320;2022-07-18T14:04:52;2.92;;;2.42;;
7166;SDS011;3625;51.762;14.320;2022-07-18T14:07:38;2.20;;;2.00;;
7166;SDS011;3625;51.762;14.320;2022-07-18T14:10:14;2.53;;;2.20;;
7166;SDS011;3625;51.762;14.320;2022-07-18T14:12:58;3.95;;;2.58;;
7166;SDS011;3625;51.762;14.320;2022-07-18T14:15:32;3.28;;;1.90;;
7166;SDS011;3625;51.762;14.320;2022-07-18T14:18:05;3.55;;;2.08;;
7166;SDS011;3625;51.762;14.320;2022-07-18T14:20:34;5.05;;;2.10;;
7166;SDS011;3625;51.762;14.320;2022-07-18T14:23:10;3.10;;;2.17;;
7166;SDS011;3625;51.762;14.320;2022-07-18T14:25:39;2.25;;;2.03;;
7166;SDS011;3625;51.762;14.320;2022-07-18T14:28:09;2.40;;;1.80;;
7166;SDS011;3625;51.762;14.320;2022-07-18T14:30:38;3.72;;;2.05;;
7166;SDS011;3625;51.762;14.320;2022-07-18T14:33:09;2.33;;;1.83;;
7166;SDS011;3625;51.762;14.320;2022-07-18T14:35:37;4.75;;;1.83;;
7166;SDS011;3625;51.762;14.320;2022-07-18T14:38:07;5.18;;;1.90;;
7166;SDS011;3625;51.762;14.320;2022-07-18T14:40:36;4.00;;;2.00;;
7166;SDS011;3625;51.762;14.320;2022-07-18T14:43:05;5.82;;;2.25;;
7166;SDS011;3625;51.762;14.320;2022-07-18T14:45:34;4.88;;;2.05;;
7166;SDS011;3625;51.762;14.320;2022-07-18T14:48:25;4.35;;;2.08;;
7166;SDS011;3625;51.762;14.320;2022-07-18T14:50:54;2.58;;;1.98;;
7166;SDS011;3625;51.762;14.320;2022-07-18T14:53:22;4.25;;;2.05;;
7166;SDS011;3625;51.762;14.320;2022-07-18T14:55:52;2.72;;;2.00;;
7166;SDS011;3625;51.762;14.320;2022-07-18T14:58:21;2.95;;;2.17;;
7166;SDS011;3625;51.762;14.320;2022-07-18T15:00:50;2.85;;;2.00;;
7166;SDS011;3625;51.762;14.320;2022-07-18T15:03:19;2.90;;;1.98;;
7166;SDS011;3625;51.762;14.320;2022-07-18T15:06:12;2.35;;;2.00;;
7166;SDS011;3625;51.762;14.320;2022-07-18T15:08:41;3.17;;;2.05;;
7166;SDS011;3625;51.762;14.320;2022-07-18T15:11:10;2.63;;;1.70;;
7166;SDS011;3625;51.762;14.320;2022-07-18T15:13:39;2.13;;;1.77;;
7166;SDS011;3625;51.762;14.320;2022-07-18T15:16:08;3.45;;;2.35;;
7166;SDS011;3625;51.762;14.320;2022-07-18T15:18:37;2.22;;;1.90;;
7166;SDS011;3625;51.762;14.320;2022-07-18T15:21:06;3.50;;;1.80;;
7166;SDS011;3625;51.762;14.320;2022-07-18T15:23:37;2.58;;;1.83;;
7166;SDS011;3625;51.762;14.320;2022-07-18T15:26:06;2.20;;;1.52;;
7166;SDS011;3625;51.762;14.320;2022-07-18T15:28:34;2.95;;;2.30;;
7166;SDS011;3625;51.762;14.320;2022-07-18T15:31:04;1.98;;;1.75;;
7166;SDS011;3625;51.762;14.320;2022-07-18T15:33:38;3.40;;;1.85;;
7166;SDS011;3625;51.762;14.320;2022-07-18T15:36:06;2.63;;;2.15;;
7166;SDS011;3625;51.762;14.320;2022-07-18T15:38:37;6.32;;;2.30;;
7166;SDS011;3625;51.762;14.320;2022-07-18T15:41:06;3.65;;;2.10;;
7166;SDS011;3625;51.762;14.320;2022-07-18T15:43:36;2.78;;;2.20;;
7166;SDS011;3625;51.762;14.320;2022-07-18T15:46:06;2.30;;;1.77;;